createdAt,value
2023-01-13T00:00:10.922Z,10.23
2023-01-13T00:03:01.641Z,9.80
2023-01-13T00:05:52.010Z,11.20
2023-01-13T00:08:41.212Z,10.30
2023-01-13T00:11:31.688Z,9.87
2023-01-13T00:14:21.105Z,10.40
2023-01-13T00:17:10.049Z,10.63
2023-01-13T00:20:01.124Z,10.33
2023-01-13T00:22:49.967Z,11.60
2023-01-13T00:25:39.156Z,12.13
2023-01-13T00:28:28.261Z,10.23
2023-01-13T00:31:20.796Z,10.07
2023-01-13T00:34:10.272Z,10.90
2023-01-13T00:37:01.559Z,11.70
2023-01-13T00:39:51.872Z,11.93
2023-01-13T00:42:57.674Z,11.73
2023-01-13T00:45:47.280Z,11.63
2023-01-13T00:48:37.868Z,12.10
2023-01-13T00:51:29.042Z,11.33
2023-01-13T00:54:20.275Z,11.67
2023-01-13T00:57:09.623Z,11.13
2023-01-13T00:59:58.575Z,11.50
2023-01-13T01:02:47.833Z,10.83
2023-01-13T01:05:36.662Z,11.30
2023-01-13T01:08:25.980Z,11.60
2023-01-13T01:11:18.622Z,11.87
2023-01-13T01:14:08.180Z,11.40
2023-01-13T01:16:57.133Z,11.30
2023-01-13T01:19:46.265Z,11.17
2023-01-13T01:22:37.590Z,9.73
2023-01-13T01:25:26.991Z,10.80
2023-01-13T01:28:19.671Z,10.63
2023-01-13T01:31:10.438Z,10.03
2023-01-13T01:34:00.339Z,10.07
2023-01-13T01:36:49.318Z,11.10
2023-01-13T01:39:38.549Z,11.07
2023-01-13T01:42:45.330Z,10.13
2023-01-13T01:45:36.293Z,10.17
2023-01-13T01:48:25.149Z,11.40
2023-01-13T01:51:15.349Z,10.33
2023-01-13T01:54:06.503Z,10.43
2023-01-13T01:56:56.454Z,9.53
2023-01-13T01:59:46.258Z,10.37
2023-01-13T02:02:38.566Z,9.63
2023-01-13T02:05:27.628Z,10.30
2023-01-13T02:08:17.227Z,9.23
2023-01-13T02:11:27.101Z,9.03
2023-01-13T02:14:14.822Z,9.00
2023-01-13T02:17:21.213Z,8.67
2023-01-13T02:20:56.659Z,8.93
2023-01-13T02:24:47.440Z,9.57
2023-01-13T02:27:59.879Z,7.90
2023-01-13T02:31:12.289Z,7.57
2023-01-13T02:34:11.934Z,7.50
2023-01-13T02:37:05.352Z,7.80
2023-01-13T02:39:58.877Z,7.33
2023-01-13T02:43:09.620Z,7.27
2023-01-13T02:46:04.505Z,6.60
2023-01-13T02:48:57.098Z,8.07
2023-01-13T02:51:49.522Z,7.17
2023-01-13T02:54:41.489Z,7.17
2023-01-13T02:57:33.981Z,6.97
2023-01-13T03:00:25.555Z,6.93
2023-01-13T03:03:16.574Z,6.40
2023-01-13T03:06:18.790Z,6.73
2023-01-13T03:09:18.695Z,6.57
2023-01-13T03:12:15.992Z,6.60
2023-01-13T03:15:11.380Z,7.13
2023-01-13T03:18:15.893Z,7.57
2023-01-13T03:21:11.675Z,6.97
2023-01-13T03:24:06.928Z,6.73
2023-01-13T03:27:02.515Z,7.87
2023-01-13T03:29:56.034Z,8.37
2023-01-13T03:32:48.098Z,7.30
2023-01-13T03:35:41.747Z,6.97
2023-01-13T03:38:39.620Z,6.70
2023-01-13T03:41:33.391Z,7.07
2023-01-13T03:44:32.834Z,7.20
2023-01-13T03:47:26.651Z,7.00
2023-01-13T03:50:20.301Z,6.60
2023-01-13T03:53:13.854Z,6.47
2023-01-13T03:56:09.774Z,6.27
2023-01-13T03:59:01.659Z,6.40
2023-01-13T04:01:55.984Z,7.30
2023-01-13T04:04:49.712Z,6.87
2023-01-13T04:07:56.468Z,5.97
2023-01-13T04:10:52.030Z,5.90
2023-01-13T04:13:45.078Z,5.93
2023-01-13T04:16:35.699Z,7.30
2023-01-13T04:19:26.908Z,6.80
2023-01-13T04:22:16.823Z,6.63
2023-01-13T04:25:06.149Z,6.83
2023-01-13T04:27:55.657Z,6.20
2023-01-13T04:30:47.069Z,6.20
2023-01-13T04:33:36.023Z,6.13
2023-01-13T04:36:27.820Z,5.80
2023-01-13T04:39:17.531Z,6.27
2023-01-13T04:42:07.549Z,6.00
2023-01-13T04:44:56.725Z,6.77
2023-01-13T04:47:47.040Z,5.70
2023-01-13T04:50:36.223Z,6.40
2023-01-13T04:53:25.464Z,5.80
2023-01-13T04:56:15.397Z,6.07
2023-01-13T04:59:04.192Z,6.73
2023-01-13T05:01:53.404Z,8.40
2023-01-13T05:04:44.390Z,7.60
2023-01-13T05:07:33.970Z,7.10
2023-01-13T05:10:24.179Z,8.30
2023-01-13T05:13:30.568Z,9.10
2023-01-13T05:16:37.134Z,7.10
2023-01-13T05:19:25.788Z,6.60
2023-01-13T05:22:33.814Z,6.90
2023-01-13T05:25:24.709Z,6.57
2023-01-13T05:28:13.797Z,5.73
2023-01-13T05:31:03.164Z,5.67
2023-01-13T05:33:52.130Z,6.00
2023-01-13T05:36:41.281Z,5.30
2023-01-13T05:39:52.496Z,5.73
2023-01-13T05:42:59.265Z,5.93
2023-01-13T05:45:49.262Z,6.10
2023-01-13T05:48:40.087Z,5.90
2023-01-13T05:51:31.734Z,6.27
2023-01-13T05:54:20.804Z,5.07
2023-01-13T05:57:11.150Z,5.73
2023-01-13T06:00:00.090Z,5.77
2023-01-13T06:02:49.713Z,5.17
2023-01-13T06:05:41.036Z,6.07
2023-01-13T06:08:30.467Z,4.80
2023-01-13T06:11:20.707Z,5.30
2023-01-13T06:14:11.823Z,4.87
2023-01-13T06:17:01.665Z,5.37
2023-01-13T06:19:51.278Z,4.50
2023-01-13T06:22:41.966Z,4.60
2023-01-13T06:25:39.853Z,4.90
2023-01-13T06:28:29.550Z,5.30
2023-01-13T06:31:20.996Z,5.13
2023-01-13T06:34:13.434Z,5.03
2023-01-13T06:37:04.185Z,4.57
2023-01-13T06:39:57.004Z,4.90
2023-01-13T06:43:03.818Z,3.93
2023-01-13T06:45:54.463Z,3.87
2023-01-13T06:48:45.730Z,5.07
2023-01-13T06:51:34.847Z,5.00
2023-01-13T06:54:23.770Z,5.43
2023-01-13T06:57:12.904Z,4.77
2023-01-13T07:00:02.119Z,5.03
2023-01-13T07:02:51.615Z,5.60
2023-01-13T07:05:43.582Z,5.90
2023-01-13T07:08:33.352Z,6.03
2023-01-13T07:11:22.189Z,5.20
2023-01-13T07:14:28.470Z,5.23
2023-01-13T07:17:25.351Z,6.10
2023-01-13T07:20:14.676Z,6.23
2023-01-13T07:23:06.218Z,6.00
2023-01-13T07:25:57.093Z,5.63
2023-01-13T07:28:46.450Z,7.40
2023-01-13T07:31:36.073Z,7.40
2023-01-13T07:34:25.525Z,6.40
2023-01-13T07:37:15.488Z,6.43
2023-01-13T07:40:06.930Z,6.93
2023-01-13T07:43:28.002Z,7.03
2023-01-13T10:01:46.924Z,23.70
2023-01-13T10:04:37.694Z,24.20
2023-01-13T10:07:32.147Z,24.23
2023-01-13T10:10:35.698Z,24.57
2023-01-13T10:13:25.734Z,23.27
2023-01-13T10:16:25.680Z,24.00
2023-01-13T10:19:20.653Z,23.57
2023-01-13T10:22:32.316Z,24.20
2023-01-13T10:25:28.873Z,25.10
2023-01-13T10:28:19.840Z,25.43
2023-01-13T10:31:13.583Z,25.50
2023-01-13T10:34:05.250Z,26.97
2023-01-13T10:37:06.591Z,26.07
2023-01-13T10:40:02.673Z,24.83
2023-01-13T10:43:06.577Z,27.50
2023-01-13T10:46:06.200Z,28.83
2023-01-13T10:48:57.858Z,27.23
2023-01-13T10:51:47.329Z,26.50
2023-01-13T10:54:37.954Z,33.20
2023-01-13T10:57:29.852Z,29.23
2023-01-13T11:00:29.129Z,27.87
2023-01-13T11:03:21.187Z,26.80
2023-01-13T11:06:21.516Z,26.00
2023-01-13T11:09:22.890Z,23.97
2023-01-13T11:12:33.813Z,22.30
2023-01-13T11:15:25.906Z,20.30
2023-01-13T11:18:25.130Z,17.87
2023-01-13T11:21:23.001Z,16.57
2023-01-13T11:24:17.938Z,14.70
2023-01-13T11:27:13.131Z,14.67
2023-01-13T11:30:11.971Z,16.63
2023-01-13T11:33:17.415Z,16.70
2023-01-13T11:36:12.481Z,16.20
2023-01-13T11:39:11.720Z,16.67
2023-01-13T11:42:22.726Z,18.00
2023-01-13T11:45:20.606Z,19.37
2023-01-13T11:48:14.974Z,20.23
2023-01-13T11:51:12.379Z,20.23
2023-01-13T11:54:24.542Z,21.60
2023-01-13T11:57:35.460Z,23.00
2023-01-13T12:00:39.072Z,20.53
2023-01-13T12:03:35.832Z,23.53
2023-01-13T12:06:34.919Z,23.47
2023-01-13T12:09:35.061Z,24.37
2023-01-13T12:12:34.729Z,24.47
2023-01-13T12:15:41.529Z,25.00
2023-01-13T12:18:44.956Z,24.00
2023-01-13T12:21:40.117Z,26.87
2023-01-13T12:24:32.924Z,26.43
2023-01-13T12:27:28.435Z,24.87
2023-01-13T12:30:25.030Z,24.93
2023-01-13T12:33:25.884Z,26.30
2023-01-13T12:36:21.779Z,25.67
2023-01-13T12:39:18.779Z,25.93
2023-01-13T12:42:30.576Z,25.83
2023-01-13T12:45:25.700Z,27.07
2023-01-13T12:48:55.626Z,28.03
2023-01-13T12:52:18.869Z,28.07
2023-01-13T12:55:22.519Z,26.90
2023-01-13T12:58:18.476Z,27.27
2023-01-13T13:01:13.481Z,26.80
2023-01-13T13:04:13.393Z,29.03
2023-01-13T13:07:10.794Z,26.83
2023-01-13T13:10:02.796Z,30.03
2023-01-13T13:13:15.183Z,27.10
2023-01-13T13:16:51.957Z,30.03
2023-01-13T13:19:48.656Z,28.23
2023-01-13T13:22:47.045Z,28.73
2023-01-13T13:25:36.025Z,28.23
2023-01-13T13:28:26.761Z,26.20
2023-01-13T13:31:29.019Z,26.43
2023-01-13T13:34:28.359Z,24.97
2023-01-13T13:37:54.521Z,27.60
2023-01-13T13:41:04.312Z,23.70
2023-01-13T13:44:12.495Z,23.77
2023-01-13T13:47:04.886Z,22.97
2023-01-13T13:49:54.975Z,21.23
2023-01-13T13:52:54.416Z,23.07
2023-01-13T13:55:54.516Z,23.03
2023-01-13T13:58:43.408Z,21.70
2023-01-13T14:01:38.786Z,20.73
2023-01-13T14:04:30.329Z,21.97
2023-01-13T14:07:22.530Z,20.37
2023-01-13T14:10:19.005Z,19.57
2023-01-13T14:13:16.738Z,20.67
2023-01-13T14:16:08.172Z,21.33
2023-01-13T14:18:58.548Z,22.57
2023-01-13T14:21:50.047Z,22.47
2023-01-13T14:24:48.054Z,21.17
2023-01-13T14:27:45.033Z,22.00
2023-01-13T14:30:35.178Z,21.77
2023-01-13T14:33:29.717Z,22.30
2023-01-13T14:36:22.578Z,22.77
2023-01-13T14:39:34.879Z,22.07
2023-01-13T14:42:23.701Z,22.07
2023-01-13T14:45:25.173Z,23.33
2023-01-13T14:48:15.857Z,23.73
2023-01-13T14:51:06.722Z,24.43
2023-01-13T14:53:58.166Z,25.80
2023-01-13T14:56:53.933Z,25.00
2023-01-13T14:59:45.790Z,25.23
2023-01-13T15:02:43.800Z,24.80
2023-01-13T15:05:47.514Z,26.77
2023-01-13T15:08:41.598Z,24.53
2023-01-13T15:11:32.179Z,23.00
2023-01-13T15:14:25.497Z,25.93
2023-01-13T15:17:17.981Z,25.73
2023-01-13T15:20:15.419Z,25.00
2023-01-13T15:23:04.934Z,26.03
2023-01-13T15:25:54.128Z,26.50
2023-01-13T15:28:45.130Z,26.33
2023-01-13T15:31:34.602Z,25.20
2023-01-13T15:34:24.120Z,25.57
2023-01-13T15:37:13.341Z,23.77
2023-01-13T15:40:02.515Z,24.90
2023-01-13T15:43:09.038Z,24.30
2023-01-13T15:46:16.513Z,25.80
2023-01-13T15:49:13.044Z,25.27
2023-01-13T15:52:02.436Z,25.70
2023-01-13T15:54:51.683Z,23.93
2023-01-13T15:57:46.824Z,24.77
2023-01-13T16:00:35.501Z,24.47
2023-01-13T16:03:26.074Z,24.83
2023-01-13T16:06:19.254Z,25.30
2023-01-13T16:09:08.856Z,25.27
2023-01-13T16:11:57.673Z,24.70
2023-01-13T16:14:47.426Z,24.93
2023-01-13T16:17:37.244Z,25.20
2023-01-13T16:20:28.517Z,29.63
2023-01-13T16:23:17.707Z,26.53
2023-01-13T16:26:07.004Z,27.23
2023-01-13T16:28:57.363Z,26.50
2023-01-13T16:31:46.236Z,26.17
2023-01-13T16:34:35.249Z,26.57
2023-01-13T16:37:27.547Z,23.70
2023-01-13T16:40:25.372Z,23.83
2023-01-13T16:43:15.111Z,26.53
2023-01-13T16:46:04.213Z,28.93
2023-01-13T16:48:54.512Z,27.83
2023-01-13T16:51:43.707Z,25.50
2023-01-13T16:54:33.736Z,24.50
2023-01-13T16:57:22.689Z,25.87
2023-01-13T17:00:13.545Z,24.30
2023-01-13T17:03:02.958Z,24.90
2023-01-13T17:05:51.699Z,24.63
2023-01-13T17:08:40.532Z,23.50
2023-01-13T17:11:30.648Z,26.17
2023-01-13T17:14:23.007Z,25.37
2023-01-13T17:17:22.965Z,25.53
2023-01-13T17:20:13.945Z,25.30
2023-01-13T17:23:02.572Z,25.37
2023-01-13T17:25:54.719Z,23.40
2023-01-13T17:28:46.950Z,24.33
2023-01-13T17:31:37.318Z,23.87
2023-01-13T17:34:26.040Z,24.43
2023-01-13T17:37:15.768Z,24.07
2023-01-13T17:40:05.357Z,28.07
2023-01-13T17:42:55.258Z,28.93
2023-01-13T17:45:46.047Z,26.80
2023-01-13T17:48:34.882Z,30.20
2023-01-13T17:51:25.157Z,28.97
2023-01-13T17:54:14.763Z,28.17
2023-01-13T17:57:03.422Z,26.47
2023-01-13T17:59:52.034Z,26.77
2023-01-13T18:02:42.217Z,26.53
2023-01-13T18:05:34.485Z,27.80
2023-01-13T18:08:24.436Z,27.23
2023-01-13T18:11:14.062Z,26.37
2023-01-13T18:14:02.878Z,25.43
2023-01-13T18:16:52.914Z,26.17
2023-01-13T18:20:01.192Z,26.17
2023-01-13T18:23:03.709Z,27.37
2023-01-13T18:26:09.991Z,25.73
2023-01-13T18:28:59.204Z,26.67
2023-01-13T18:31:50.117Z,26.37
2023-01-13T18:34:40.616Z,25.90
2023-01-13T18:37:31.067Z,26.70
2023-01-13T18:40:20.684Z,26.07
2023-01-13T18:43:08.515Z,25.27
2023-01-13T18:45:58.410Z,26.80
2023-01-13T18:48:47.427Z,25.97
2023-01-13T18:51:36.470Z,26.90
2023-01-13T18:54:27.236Z,25.73
2023-01-13T18:57:16.835Z,25.10
2023-01-13T19:00:06.638Z,26.13
2023-01-13T19:05:54.656Z,28.30
2023-01-13T19:08:44.673Z,28.97
2023-01-13T19:11:36.118Z,27.77
2023-01-13T19:14:39.153Z,26.63
2023-01-13T19:17:33.439Z,28.03
2023-01-13T19:20:24.498Z,27.57
2023-01-13T19:23:13.890Z,27.27
2023-01-13T19:26:04.125Z,26.27
2023-01-13T19:28:56.075Z,28.10
2023-01-13T19:31:45.420Z,28.97
2023-01-13T19:34:34.470Z,27.57
2023-01-13T19:37:23.575Z,27.30
2023-01-13T19:40:15.145Z,26.60
2023-01-13T19:43:30.490Z,28.60
2023-01-13T19:46:20.641Z,26.17
2023-01-13T19:49:11.507Z,25.40
2023-01-13T19:52:00.799Z,26.37
2023-01-13T19:54:50.671Z,25.97
2023-01-13T19:57:40.180Z,25.23
2023-01-13T20:00:29.816Z,24.87
2023-01-13T20:03:23.757Z,25.73
2023-01-13T20:06:14.222Z,24.77
2023-01-13T20:09:03.486Z,24.10
2023-01-13T20:11:55.183Z,24.70
2023-01-13T20:14:45.389Z,26.03
2023-01-13T20:17:34.784Z,25.70
2023-01-13T20:20:26.871Z,24.67
2023-01-13T20:23:16.470Z,25.87
2023-01-13T20:26:09.152Z,25.83
2023-01-13T20:28:58.823Z,26.53
2023-01-13T20:31:48.300Z,25.90
2023-01-13T20:34:37.346Z,26.50
2023-01-13T20:37:28.352Z,26.23
2023-01-13T20:40:18.545Z,24.07
2023-01-13T20:43:08.475Z,26.73
2023-01-13T20:45:57.741Z,26.10
2023-01-13T20:48:46.686Z,26.73
2023-01-13T20:51:35.848Z,26.17
2023-01-13T20:54:27.045Z,23.60
2023-01-13T20:57:16.919Z,21.87
2023-01-13T21:00:08.810Z,20.83
2023-01-13T21:02:58.316Z,21.10
2023-01-13T21:05:47.408Z,22.50
2023-01-13T21:08:37.098Z,21.80
2023-01-13T21:11:45.920Z,21.10
2023-01-13T21:14:52.895Z,20.70
2023-01-13T21:18:07.833Z,19.87
2023-01-13T21:21:11.941Z,21.50
2023-01-13T21:24:01.527Z,20.90
2023-01-13T21:26:55.130Z,21.40
2023-01-13T21:29:44.840Z,20.07
2023-01-13T21:32:34.156Z,19.17
2023-01-13T21:35:23.791Z,21.50
2023-01-13T21:38:13.722Z,20.53
2023-01-13T21:41:05.685Z,20.23
2023-01-13T21:44:13.630Z,20.17
2023-01-13T21:47:19.455Z,21.07
2023-01-13T21:50:10.749Z,19.90
2023-01-13T21:53:00.542Z,19.50
2023-01-13T21:55:52.985Z,21.03
2023-01-13T21:58:42.773Z,20.40
2023-01-13T22:01:33.790Z,20.87
2023-01-13T22:04:26.488Z,20.60
2023-01-13T22:07:15.350Z,19.40
2023-01-13T22:10:04.872Z,20.10
2023-01-13T22:12:55.203Z,19.57
2023-01-13T22:15:44.825Z,18.97
2023-01-13T22:18:35.728Z,18.47
2023-01-13T22:21:24.741Z,18.93
2023-01-13T22:24:14.061Z,19.27
2023-01-13T22:27:03.305Z,20.80
2023-01-13T22:29:54.567Z,17.57
2023-01-13T22:32:44.440Z,19.20
2023-01-13T22:35:34.860Z,18.43
2023-01-13T22:38:24.141Z,17.77
2023-01-13T22:41:13.251Z,17.13
2023-01-13T22:44:02.725Z,17.00
2023-01-13T22:46:52.428Z,15.53
2023-01-13T22:49:42.445Z,14.10
2023-01-13T22:52:32.911Z,15.30
2023-01-13T22:55:22.642Z,14.83
2023-01-13T22:58:11.749Z,15.07
2023-01-13T23:01:11.109Z,15.67
2023-01-13T23:04:00.613Z,14.73
2023-01-13T23:06:49.762Z,14.43
2023-01-13T23:09:40.508Z,14.43
2023-01-13T23:12:29.547Z,13.40
2023-01-13T23:15:19.920Z,13.63
2023-01-13T23:18:09.138Z,13.83
2023-01-13T23:20:58.873Z,13.47
2023-01-13T23:23:48.889Z,12.70
2023-01-13T23:26:39.489Z,13.67
2023-01-13T23:29:29.343Z,13.57
2023-01-13T23:32:18.614Z,11.97
2023-01-13T23:35:08.452Z,11.63
2023-01-13T23:37:57.742Z,12.67
2023-01-13T23:40:47.846Z,12.07
2023-01-13T23:43:39.216Z,11.97
2023-01-13T23:46:28.391Z,11.73
2023-01-13T23:49:17.798Z,10.30
2023-01-13T23:52:07.282Z,9.83
2023-01-13T23:54:57.651Z,10.10
2023-01-13T23:57:46.945Z,8.83
